Time;durP1;ratioP1;P1;durP2;ratioP2;P2;SDS_P1;SDS_P2;PMS_P1;PMS_P2;Temp;Humidity;BMP_temperature;BMP_pressure;BME280_temperature;BME280_humidity;BME280_pressure;Samples;Min_cycle;Max_cycle;Signal;HPM_P1;HPM_P2
2022/04/23 00:02:59;;;;;;;9.23;8.05;;;;;;;;;;8159942;28;20717;-70
2022/04/23 00:07:00;;;;;;;11.17;8.60;;;;;;;;;;8157645;28;20073;-71
2022/04/23 00:11:00;;;;;;;10.55;8.80;;;;;;;;;;8160786;28;20986;-71
2022/04/23 00:15:00;;;;;;;8.98;7.65;;;;;;;;;;8160069;28;20681;-70
2022/04/23 00:19:00;;;;;;;9.65;8.50;;;;;;;;;;8162679;28;20134;-71
2022/04/23 00:23:01;;;;;;;9.15;8.05;;;;;;;;;;8161714;28;20035;-71
2022/04/23 00:27:01;;;;;;;10.15;8.48;;;;;;;;;;8162021;28;20027;-71
2022/04/23 00:31:01;;;;;;;11.25;8.25;;;;;;;;;;8164496;28;20141;-71
2022/04/23 00:35:01;;;;;;;11.50;8.40;;;;;;;;;;8161589;28;20027;-70
2022/04/23 00:39:02;;;;;;;8.00;7.20;;;;;;;;;;8163277;28;20959;-71
2022/04/23 00:43:05;;;;;;;10.05;8.45;;;;;;;;;;8161321;28;20278;-71
2022/04/23 00:47:06;;;;;;;9.80;8.45;;;;;;;;;;8160701;28;20039;-70
2022/04/23 00:51:06;;;;;;;11.60;8.13;;;;;;;;;;8165109;28;20477;-70
2022/04/23 00:55:07;;;;;;;12.75;8.18;;;;;;;;;;8164902;28;20109;-70
2022/04/23 00:59:11;;;;;;;9.40;8.00;;;;;;;;;;8165989;28;20062;-72
2022/04/23 01:03:12;;;;;;;11.27;8.32;;;;;;;;;;8161915;28;20035;-71
2022/04/23 01:07:13;;;;;;;8.05;7.07;;;;;;;;;;8163431;28;20022;-71
2022/04/23 01:11:13;;;;;;;10.82;8.98;;;;;;;;;;8152400;28;20029;-72
2022/04/23 01:15:14;;;;;;;12.02;8.55;;;;;;;;;;8169105;28;20062;-72
2022/04/23 01:19:14;;;;;;;10.48;8.30;;;;;;;;;;8178985;28;20026;-72
2022/04/23 01:23:14;;;;;;;9.07;8.18;;;;;;;;;;8170112;28;20019;-72
2022/04/23 01:27:15;;;;;;;13.75;8.45;;;;;;;;;;8169120;28;20023;-71
2022/04/23 01:31:15;;;;;;;10.95;8.68;;;;;;;;;;8183913;28;20114;-72
2022/04/23 01:35:15;;;;;;;14.40;8.82;;;;;;;;;;8171172;28;20035;-72
2022/04/23 01:39:15;;;;;;;10.90;8.38;;;;;;;;;;8173132;28;20019;-72
2022/04/23 01:43:15;;;;;;;10.40;8.50;;;;;;;;;;8171053;28;20077;-71
2022/04/23 01:47:16;;;;;;;10.93;8.35;;;;;;;;;;8170784;28;20153;-71
2022/04/23 01:51:16;;;;;;;10.95;8.70;;;;;;;;;;8170039;28;20035;-72
2022/04/23 01:55:16;;;;;;;14.93;9.45;;;;;;;;;;8186612;28;20027;-71
2022/04/23 01:59:16;;;;;;;11.00;9.02;;;;;;;;;;8168542;28;20631;-71
2022/04/23 02:03:17;;;;;;;10.13;8.98;;;;;;;;;;8169274;28;20027;-72
2022/04/23 02:07:17;;;;;;;10.88;8.73;;;;;;;;;;8168683;28;20155;-72
2022/04/23 02:11:17;;;;;;;11.48;8.77;;;;;;;;;;8170067;28;20149;-72
2022/04/23 02:15:17;;;;;;;10.68;8.52;;;;;;;;;;8169568;28;20031;-71
2022/04/23 02:19:17;;;;;;;12.68;8.90;;;;;;;;;;8170170;28;20023;-71
2022/04/23 02:23:18;;;;;;;12.18;9.43;;;;;;;;;;8169631;28;20031;-71
2022/04/23 02:27:18;;;;;;;15.80;9.27;;;;;;;;;;8164858;28;20026;-71
2022/04/23 02:31:18;;;;;;;9.98;8.95;;;;;;;;;;8164965;28;20141;-72
2022/04/23 02:35:21;;;;;;;10.67;9.50;;;;;;;;;;8166628;28;20806;-72
2022/04/23 02:39:21;;;;;;;11.77;10.10;;;;;;;;;;8167272;28;20263;-71
2022/04/23 02:43:22;;;;;;;14.05;10.30;;;;;;;;;;8167455;28;20069;-72
2022/04/23 02:47:22;;;;;;;13.15;10.18;;;;;;;;;;8169155;28;20039;-72
2022/04/23 02:51:22;;;;;;;12.95;10.27;;;;;;;;;;8167167;28;20097;-72
2022/04/23 02:55:26;;;;;;;12.20;9.45;;;;;;;;;;8179410;28;20117;-72
2022/04/23 02:59:26;;;;;;;12.23;9.82;;;;;;;;;;8165761;28;20503;-72
2022/04/23 03:03:26;;;;;;;12.93;10.38;;;;;;;;;;8162184;28;20122;-72
2022/04/23 03:07:30;;;;;;;11.85;10.27;;;;;;;;;;8164692;28;20054;-72
2022/04/23 03:11:30;;;;;;;11.77;9.80;;;;;;;;;;8163817;28;20054;-71
2022/04/23 03:15:31;;;;;;;13.88;9.95;;;;;;;;;;8162339;28;20871;-71
2022/04/23 03:19:31;;;;;;;13.48;10.65;;;;;;;;;;8164050;28;20047;-71
2022/04/23 03:23:31;;;;;;;12.98;10.90;;;;;;;;;;8164551;28;20024;-71
2022/04/23 03:27:31;;;;;;;14.40;10.88;;;;;;;;;;8162987;28;20031;-71
2022/04/23 03:31:31;;;;;;;13.40;9.68;;;;;;;;;;8165042;28;20073;-72
2022/04/23 03:35:32;;;;;;;12.05;10.82;;;;;;;;;;8166667;28;20028;-71
2022/04/23 03:39:32;;;;;;;11.95;9.55;;;;;;;;;;8165024;28;20046;-72
2022/04/23 03:43:33;;;;;;;12.82;10.85;;;;;;;;;;8163434;28;20653;-72
2022/04/23 03:47:33;;;;;;;12.50;10.73;;;;;;;;;;8162441;28;20039;-72
2022/04/23 03:51:33;;;;;;;13.63;10.80;;;;;;;;;;8162529;28;20034;-71
2022/04/23 03:55:34;;;;;;;12.60;10.50;;;;;;;;;;8161592;28;20028;-72
2022/04/23 03:59:37;;;;;;;15.70;11.60;;;;;;;;;;8163639;28;20031;-72
2022/04/23 04:03:37;;;;;;;15.90;12.20;;;;;;;;;;8160956;28;20032;-71
2022/04/23 04:07:42;;;;;;;14.68;11.07;;;;;;;;;;8162494;28;20145;-71
2022/04/23 04:16:01;;;;;;;14.10;11.32;;;;;;;;;;8161150;28;20844;-71
2022/04/23 04:20:02;;;;;;;15.02;11.30;;;;;;;;;;8160377;28;20050;-72
2022/04/23 04:24:02;;;;;;;14.48;11.88;;;;;;;;;;8161625;28;20026;-72
2022/04/23 04:28:03;;;;;;;14.63;11.68;;;;;;;;;;8160957;28;20034;-72
2022/04/23 04:32:03;;;;;;;14.45;11.88;;;;;;;;;;8162328;28;20030;-72
2022/04/23 04:36:03;;;;;;;16.15;11.10;;;;;;;;;;8162964;28;20120;-72
2022/04/23 04:40:05;;;;;;;14.97;12.20;;;;;;;;;;8165123;28;20019;-71
2022/04/23 04:44:05;;;;;;;13.32;10.98;;;;;;;;;;8160974;28;20311;-72
2022/04/23 04:48:05;;;;;;;13.68;11.35;;;;;;;;;;8162468;28;20066;-72
2022/04/23 04:52:06;;;;;;;15.83;11.63;;;;;;;;;;8159713;28;20108;-72
2022/04/23 04:56:07;;;;;;;13.43;10.77;;;;;;;;;;8163062;28;20031;-72
2022/04/23 05:00:08;;;;;;;13.25;11.27;;;;;;;;;;8158668;28;20099;-72
2022/04/23 05:04:08;;;;;;;14.07;10.48;;;;;;;;;;8161433;28;20059;-71
2022/04/23 05:08:08;;;;;;;11.67;10.07;;;;;;;;;;8161932;28;20114;-71
2022/04/23 05:12:09;;;;;;;12.10;10.48;;;;;;;;;;8160599;28;21200;-71
2022/04/23 05:16:09;;;;;;;13.68;11.18;;;;;;;;;;8158718;28;20069;-71
2022/04/23 05:20:10;;;;;;;13.98;10.60;;;;;;;;;;8159839;28;20616;-71
2022/04/23 05:24:10;;;;;;;20.20;12.35;;;;;;;;;;8160446;28;20049;-71
2022/04/23 05:28:10;;;;;;;12.38;10.57;;;;;;;;;;8158656;28;20027;-72
2022/04/23 05:32:10;;;;;;;12.80;10.53;;;;;;;;;;8157298;28;20059;-72
2022/04/23 05:36:11;;;;;;;11.73;10.02;;;;;;;;;;8160500;28;21063;-71
2022/04/23 05:40:11;;;;;;;12.95;10.45;;;;;;;;;;8161598;28;20019;-72
2022/04/23 05:44:11;;;;;;;14.38;10.70;;;;;;;;;;8160466;28;20082;-72
2022/04/23 05:48:12;;;;;;;13.02;10.85;;;;;;;;;;8159939;28;20067;-71
2022/04/23 05:52:12;;;;;;;13.15;10.32;;;;;;;;;;8153437;28;20098;-72
2022/04/23 05:56:12;;;;;;;13.57;10.50;;;;;;;;;;8164254;28;20035;-72
2022/04/23 06:00:13;;;;;;;12.18;10.88;;;;;;;;;;8166210;28;20027;-71
2022/04/23 06:04:13;;;;;;;13.20;10.55;;;;;;;;;;8166501;28;20119;-71
2022/04/23 06:08:13;;;;;;;13.02;10.10;;;;;;;;;;8167621;28;20107;-72
2022/04/23 06:12:14;;;;;;;10.68;9.57;;;;;;;;;;8166076;28;20093;-72
2022/04/23 06:16:14;;;;;;;12.90;10.10;;;;;;;;;;8166164;28;20144;-72
2022/04/23 06:20:14;;;;;;;11.45;9.40;;;;;;;;;;8164781;28;20026;-72
2022/04/23 06:24:14;;;;;;;9.63;8.63;;;;;;;;;;8166412;28;20085;-72
2022/04/23 06:28:15;;;;;;;12.80;9.20;;;;;;;;;;8164943;28;20112;-71
2022/04/23 06:32:15;;;;;;;9.10;7.93;;;;;;;;;;8165424;28;20035;-72
2022/04/23 06:36:15;;;;;;;8.70;7.90;;;;;;;;;;8165054;28;20050;-72
2022/04/23 06:40:15;;;;;;;8.45;7.60;;;;;;;;;;8162846;28;20059;-72
2022/04/23 06:44:15;;;;;;;8.75;7.90;;;;;;;;;;8158840;28;20047;-72
2022/04/23 06:48:16;;;;;;;8.85;7.95;;;;;;;;;;8161963;28;20028;-72
2022/04/23 06:52:16;;;;;;;7.95;7.15;;;;;;;;;;8172109;28;20027;-72
2022/04/23 06:56:16;;;;;;;8.02;7.20;;;;;;;;;;8163196;28;21020;-72
2022/04/23 07:00:16;;;;;;;8.15;7.35;;;;;;;;;;8160300;28;20023;-71
2022/04/23 07:04:17;;;;;;;8.40;7.50;;;;;;;;;;8162241;28;20445;-71
2022/04/23 07:08:17;;;;;;;8.13;7.10;;;;;;;;;;8164137;28;20023;-72
2022/04/23 07:12:17;;;;;;;8.05;7.25;;;;;;;;;;8163265;28;20365;-72
2022/04/23 07:16:18;;;;;;;6.63;6.03;;;;;;;;;;8161389;28;20042;-72
2022/04/23 07:20:19;;;;;;;6.93;6.15;;;;;;;;;;8162734;28;20030;-72
2022/04/23 07:24:19;;;;;;;7.40;6.70;;;;;;;;;;8162238;28;20140;-72
2022/04/23 07:28:22;;;;;;;15.90;6.13;;;;;;;;;;8161551;28;20070;-71
2022/04/23 07:32:24;;;;;;;7.65;6.85;;;;;;;;;;8161497;28;20342;-72
2022/04/23 07:40:44;;;;;;;6.70;6.10;;;;;;;;;;8158837;28;20045;-73
2022/04/23 07:44:44;;;;;;;7.30;6.60;;;;;;;;;;8160284;28;20034;-72
2022/04/23 07:48:44;;;;;;;6.70;6.00;;;;;;;;;;8156777;28;20442;-72
2022/04/23 07:52:45;;;;;;;7.28;6.57;;;;;;;;;;8158868;28;20413;-72
2022/04/23 07:56:45;;;;;;;6.43;5.82;;;;;;;;;;8160918;28;20038;-72
2022/04/23 08:00:45;;;;;;;6.78;6.13;;;;;;;;;;8158126;28;20729;-72
2022/04/23 08:04:46;;;;;;;5.95;5.40;;;;;;;;;;8159915;28;20042;-72
2022/04/23 08:08:46;;;;;;;6.45;5.85;;;;;;;;;;8160597;28;20037;-72
2022/04/23 08:12:47;;;;;;;6.05;5.53;;;;;;;;;;8158117;28;20033;-72
2022/04/23 08:16:49;;;;;;;7.10;6.40;;;;;;;;;;8159785;28;20043;-72
2022/04/23 08:20:50;;;;;;;6.38;5.78;;;;;;;;;;8156492;28;20097;-72
2022/04/23 08:24:50;;;;;;;6.53;5.45;;;;;;;;;;8156739;28;20489;-72
2022/04/23 08:33:09;;;;;;;6.30;5.80;;;;;;;;;;8155747;28;20042;-72
2022/04/23 08:37:09;;;;;;;6.22;5.72;;;;;;;;;;8156586;28;20027;-72
2022/04/23 08:41:11;;;;;;;6.03;5.40;;;;;;;;;;8159188;28;20567;-72
2022/04/23 08:45:12;;;;;;;5.57;5.10;;;;;;;;;;8157423;28;20021;-72
2022/04/23 08:49:16;;;;;;;5.18;4.60;;;;;;;;;;8156269;28;20059;-72
2022/04/23 08:53:18;;;;;;;5.75;4.25;;;;;;;;;;8160366;28;20074;-76
2022/04/23 08:57:19;;;;;;;5.22;4.72;;;;;;;;;;8157792;28;20055;-74
2022/04/23 09:01:19;;;;;;;5.13;4.60;;;;;;;;;;8160045;28;20039;-74
2022/04/23 09:05:20;;;;;;;4.82;4.43;;;;;;;;;;8159376;28;20035;-74
2022/04/23 09:09:21;;;;;;;4.32;3.90;;;;;;;;;;8161265;28;20088;-72
2022/04/23 09:13:31;;;;;;;3.95;3.65;;;;;;;;;;8158887;28;20090;-72
2022/04/23 09:26:21;;;;;;;3.63;3.10;;;;;;;;;;8157108;28;20030;-73
2022/04/23 09:30:21;;;;;;;3.17;2.83;;;;;;;;;;8170915;28;20031;-72
2022/04/23 09:34:23;;;;;;;3.50;3.20;;;;;;;;;;8158275;28;20174;-73
2022/04/23 09:38:24;;;;;;;3.47;3.17;;;;;;;;;;8165082;28;20026;-74
2022/04/23 09:42:24;;;;;;;3.28;2.85;;;;;;;;;;8163849;28;20012;-73
2022/04/23 09:46:25;;;;;;;2.90;2.70;;;;;;;;;;8165079;28;20143;-72
2022/04/23 09:50:25;;;;;;;7.40;2.97;;;;;;;;;;8157643;28;20326;-74
2022/04/23 09:54:27;;;;;;;2.90;2.70;;;;;;;;;;8166695;28;20027;-73
2022/04/23 09:58:29;;;;;;;3.67;3.38;;;;;;;;;;8177983;28;20039;-72
2022/04/23 10:02:29;;;;;;;4.00;3.05;;;;;;;;;;8147710;28;20754;-72
2022/04/23 10:06:35;;;;;;;3.10;2.80;;;;;;;;;;8136194;29;20030;-72
2022/04/23 10:10:39;;;;;;;9.95;3.60;;;;;;;;;;8136364;29;20058;-73
2022/04/23 10:14:43;;;;;;;3.30;3.10;;;;;;;;;;8134218;29;20035;-72
2022/04/23 10:18:44;;;;;;;3.00;2.80;;;;;;;;;;8158655;28;20047;-73
2022/04/23 10:23:17;;;;;;;3.53;2.85;;;;;;;;;;8163573;28;20066;-73
2022/04/23 10:27:18;;;;;;;3.08;2.80;;;;;;;;;;8154795;28;21002;-73
2022/04/23 10:31:19;;;;;;;4.15;3.15;;;;;;;;;;8163916;28;20445;-73
2022/04/23 10:35:19;;;;;;;3.55;3.25;;;;;;;;;;8165743;28;20048;-72
2022/04/23 10:39:21;;;;;;;4.07;3.20;;;;;;;;;;8164016;28;20958;-75
2022/04/23 10:43:22;;;;;;;5.30;3.20;;;;;;;;;;8166379;28;20520;-73
2022/04/23 10:47:33;;;;;;;4.33;3.10;;;;;;;;;;8143191;28;20067;-73
2022/04/23 10:51:43;;;;;;;3.20;3.00;;;;;;;;;;8129275;29;20023;-73
2022/04/23 10:56:02;;;;;;;3.33;3.03;;;;;;;;;;8139768;28;20058;-73
2022/04/23 11:00:09;;;;;;;3.28;2.97;;;;;;;;;;8130047;29;20047;-73
2022/04/23 11:04:10;;;;;;;3.95;3.00;;;;;;;;;;8174945;28;20047;-72
2022/04/23 11:12:38;;;;;;;3.40;3.10;;;;;;;;;;8159674;28;20496;-73
2022/04/23 11:16:53;;;;;;;3.67;3.38;;;;;;;;;;8161898;28;20047;-73
2022/04/23 11:20:55;;;;;;;3.67;3.17;;;;;;;;;;8157818;28;20654;-73
2022/04/23 11:24:57;;;;;;;4.22;3.20;;;;;;;;;;8160579;28;20027;-72
2022/04/23 11:28:58;;;;;;;3.53;3.22;;;;;;;;;;8175265;28;20027;-72
2022/04/23 11:33:08;;;;;;;3.22;3.03;;;;;;;;;;8158639;28;20085;-72
2022/04/23 11:37:10;;;;;;;4.03;3.65;;;;;;;;;;8161396;28;20058;-73
2022/04/23 11:41:10;;;;;;;4.03;3.40;;;;;;;;;;8159008;28;20131;-72
2022/04/23 11:45:12;;;;;;;3.42;3.13;;;;;;;;;;8159159;28;20055;-73
2022/04/23 11:49:29;;;;;;;3.95;3.65;;;;;;;;;;8159811;28;20058;-73
2022/04/23 11:53:46;;;;;;;4.45;3.83;;;;;;;;;;8159965;28;20027;-73
2022/04/23 11:57:54;;;;;;;3.50;3.20;;;;;;;;;;8158134;28;20055;-72
2022/04/23 12:01:54;;;;;;;3.65;3.35;;;;;;;;;;8157395;28;20043;-72
2022/04/23 12:05:57;;;;;;;3.90;3.58;;;;;;;;;;8159682;28;20444;-73
2022/04/23 12:09:58;;;;;;;3.80;3.50;;;;;;;;;;8162438;28;20090;-73
2022/04/23 12:13:59;;;;;;;4.78;3.50;;;;;;;;;;8159344;28;20492;-73
2022/04/23 12:18:00;;;;;;;4.72;3.25;;;;;;;;;;8160011;28;20032;-73
2022/04/23 12:22:00;;;;;;;4.20;3.80;;;;;;;;;;8167232;28;20085;-75
2022/04/23 12:26:11;;;;;;;3.83;3.53;;;;;;;;;;8159730;28;20929;-72
2022/04/23 12:43:20;;;;;;;4.72;3.35;;;;;;;;;;8161229;28;20122;-73
2022/04/23 12:47:30;;;;;;;3.85;3.55;;;;;;;;;;8159800;28;20046;-74
2022/04/23 12:51:30;;;;;;;3.75;3.15;;;;;;;;;;8156813;28;20023;-73
2022/04/23 12:55:33;;;;;;;5.45;3.15;;;;;;;;;;8159393;28;20034;-73
2022/04/23 12:59:33;;;;;;;3.65;3.20;;;;;;;;;;8158340;28;20054;-73
2022/04/23 13:11:53;;;;;;;3.42;3.13;;;;;;;;;;8156188;28;20940;-74
2022/04/23 13:15:53;;;;;;;4.97;3.33;;;;;;;;;;8160356;28;20043;-74
2022/04/23 13:19:53;;;;;;;3.28;2.97;;;;;;;;;;8161360;28;20027;-73
2022/04/23 13:23:54;;;;;;;3.07;2.77;;;;;;;;;;8158986;28;20019;-73
2022/04/23 13:27:54;;;;;;;3.20;2.90;;;;;;;;;;8159019;28;20349;-73
2022/04/23 13:31:55;;;;;;;3.58;3.10;;;;;;;;;;8158115;28;20038;-73
2022/04/23 13:35:55;;;;;;;4.85;3.20;;;;;;;;;;8161531;28;20815;-72
2022/04/23 13:39:55;;;;;;;3.03;2.72;;;;;;;;;;8162671;28;20500;-73
2022/04/23 13:43:55;;;;;;;3.90;2.88;;;;;;;;;;8159353;28;21616;-73
2022/04/23 13:47:56;;;;;;;2.90;2.70;;;;;;;;;;8161370;28;20042;-73
2022/04/23 13:51:57;;;;;;;5.97;3.03;;;;;;;;;;8160399;28;20386;-74
2022/04/23 13:55:57;;;;;;;5.28;3.40;;;;;;;;;;8161020;28;20023;-74
2022/04/23 13:59:57;;;;;;;4.18;3.15;;;;;;;;;;8161253;28;20033;-73
2022/04/23 14:12:36;;;;;;;7.10;3.45;;;;;;;;;;8161850;28;20034;-73
2022/04/23 14:16:37;;;;;;;5.40;4.90;;;;;;;;;;8162534;28;20055;-73
2022/04/23 14:20:37;;;;;;;7.80;5.97;;;;;;;;;;8162023;28;20031;-74
2022/04/23 14:24:37;;;;;;;6.60;5.63;;;;;;;;;;8165976;28;21069;-74
2022/04/23 14:28:37;;;;;;;7.07;5.05;;;;;;;;;;8168753;28;20016;-74
2022/04/23 14:32:37;;;;;;;6.20;5.60;;;;;;;;;;8164575;28;20742;-74
2022/04/23 14:36:37;;;;;;;7.53;6.33;;;;;;;;;;8166361;28;20031;-74
2022/04/23 14:40:38;;;;;;;9.25;7.70;;;;;;;;;;8165070;28;20254;-73
2022/04/23 14:44:38;;;;;;;9.93;8.85;;;;;;;;;;8165796;28;20027;-73
2022/04/23 14:48:38;;;;;;;11.13;8.23;;;;;;;;;;8165746;28;20146;-73
2022/04/23 14:56:57;;;;;;;9.77;7.43;;;;;;;;;;8166162;28;20089;-73
2022/04/23 15:00:57;;;;;;;8.53;6.87;;;;;;;;;;8165747;28;20031;-73
2022/04/23 15:04:58;;;;;;;7.72;6.25;;;;;;;;;;8165171;28;20023;-73
2022/04/23 15:08:58;;;;;;;6.80;6.10;;;;;;;;;;8163932;28;20943;-73
2022/04/23 15:12:58;;;;;;;7.10;6.40;;;;;;;;;;8164874;28;20290;-73
2022/04/23 15:16:58;;;;;;;9.07;7.15;;;;;;;;;;8164540;28;20028;-73
2022/04/23 15:20:58;;;;;;;10.45;8.07;;;;;;;;;;8162458;28;20678;-73
2022/04/23 15:25:01;;;;;;;8.32;7.43;;;;;;;;;;8164845;28;20022;-73
2022/04/23 15:29:01;;;;;;;9.85;7.85;;;;;;;;;;8179460;28;20325;-73
2022/04/23 15:33:01;;;;;;;9.90;8.40;;;;;;;;;;8162565;28;21361;-73
2022/04/23 15:37:01;;;;;;;10.70;8.60;;;;;;;;;;8164437;28;20026;-73
2022/04/23 15:41:01;;;;;;;10.50;7.68;;;;;;;;;;8161867;28;20043;-73
2022/04/23 15:45:02;;;;;;;10.73;8.27;;;;;;;;;;8164556;28;21039;-73
2022/04/23 15:49:02;;;;;;;8.85;7.00;;;;;;;;;;8163164;28;20042;-72
2022/04/23 15:53:02;;;;;;;8.45;7.10;;;;;;;;;;8163969;28;20333;-72
2022/04/23 15:57:02;;;;;;;8.27;6.90;;;;;;;;;;8163922;28;20164;-71
2022/04/23 16:01:03;;;;;;;10.82;6.25;;;;;;;;;;8177129;28;20279;-72
2022/04/23 16:05:03;;;;;;;7.73;7.00;;;;;;;;;;8160775;28;20613;-72
2022/04/23 16:09:04;;;;;;;11.15;9.25;;;;;;;;;;8163712;28;20074;-71
2022/04/23 16:13:07;;;;;;;10.35;8.48;;;;;;;;;;8159911;28;20023;-71
2022/04/23 16:17:07;;;;;;;11.23;8.88;;;;;;;;;;8162693;28;20897;-71
2022/04/23 16:21:07;;;;;;;9.30;8.10;;;;;;;;;;8163384;28;20030;-71
2022/04/23 16:25:08;;;;;;;10.52;7.65;;;;;;;;;;8155508;28;20030;-70
2022/04/23 16:29:08;;;;;;;10.40;7.55;;;;;;;;;;8163287;28;20027;-71
2022/04/23 16:33:08;;;;;;;8.50;7.65;;;;;;;;;;8162669;28;20118;-71
2022/04/23 16:50:05;;;;;;;10.70;8.43;;;;;;;;;;8162288;28;20100;-71
2022/04/23 16:54:06;;;;;;;11.18;7.95;;;;;;;;;;8162632;28;20031;-70
2022/04/23 16:58:06;;;;;;;11.02;7.93;;;;;;;;;;8163831;28;20050;-72
2022/04/23 17:02:06;;;;;;;12.43;8.68;;;;;;;;;;8157758;28;20059;-72
2022/04/23 17:06:06;;;;;;;10.43;8.88;;;;;;;;;;8156948;28;20041;-73
2022/04/23 17:10:08;;;;;;;11.55;9.23;;;;;;;;;;8157735;28;20023;-72
2022/04/23 17:14:08;;;;;;;11.55;9.63;;;;;;;;;;8169009;28;20512;-71
2022/04/23 17:18:08;;;;;;;9.60;8.57;;;;;;;;;;8159081;28;20465;-71
2022/04/23 17:22:08;;;;;;;9.65;8.65;;;;;;;;;;8157189;28;20557;-71
2022/04/23 17:26:09;;;;;;;10.73;9.52;;;;;;;;;;8156146;28;20049;-72
2022/04/23 17:30:09;;;;;;;11.17;9.13;;;;;;;;;;8154121;28;20028;-71
2022/04/23 17:34:10;;;;;;;12.15;9.52;;;;;;;;;;8156555;28;20477;-71
2022/04/23 17:42:29;;;;;;;11.68;9.63;;;;;;;;;;8157492;28;20042;-71
2022/04/23 17:46:29;;;;;;;11.85;10.15;;;;;;;;;;8157978;28;20039;-72
2022/04/23 17:50:29;;;;;;;11.00;9.73;;;;;;;;;;8158788;28;20378;-72
2022/04/23 17:54:29;;;;;;;11.27;10.07;;;;;;;;;;8156861;28;20026;-72
2022/04/23 17:58:30;;;;;;;12.70;9.83;;;;;;;;;;8164842;28;20062;-72
2022/04/23 18:11:08;;;;;;;8.15;7.28;;;;;;;;;;8162837;28;20070;-72
2022/04/23 18:15:10;;;;;;;9.15;7.75;;;;;;;;;;8160212;28;20023;-72
2022/04/23 18:19:10;;;;;;;9.88;7.93;;;;;;;;;;8163216;28;20656;-71
2022/04/23 18:23:10;;;;;;;8.88;8.00;;;;;;;;;;8171342;28;20145;-71
2022/04/23 18:27:11;;;;;;;9.32;7.95;;;;;;;;;;8167410;28;20027;-71
2022/04/23 18:31:11;;;;;;;10.30;7.95;;;;;;;;;;8164130;28;20389;-72
2022/04/23 18:35:11;;;;;;;8.93;7.95;;;;;;;;;;8161787;28;20146;-72
2022/04/23 18:39:12;;;;;;;9.05;7.90;;;;;;;;;;8164951;28;20035;-73
2022/04/23 18:43:13;;;;;;;9.10;6.72;;;;;;;;;;8164195;28;20106;-72
2022/04/23 18:47:13;;;;;;;9.85;7.43;;;;;;;;;;8161946;28;20046;-72
2022/04/23 18:51:13;;;;;;;9.48;7.35;;;;;;;;;;8160357;28;20039;-72
2022/04/23 18:55:15;;;;;;;8.57;7.60;;;;;;;;;;8163492;28;20015;-72
2022/04/23 18:59:16;;;;;;;8.63;7.78;;;;;;;;;;8160709;28;20282;-72
2022/04/23 19:03:16;;;;;;;8.43;7.55;;;;;;;;;;8160603;28;20035;-72
2022/04/23 19:07:16;;;;;;;9.77;7.70;;;;;;;;;;8160950;28;21023;-72
2022/04/23 19:11:17;;;;;;;8.45;7.35;;;;;;;;;;8160256;28;20027;-72
2022/04/23 19:15:17;;;;;;;11.13;8.10;;;;;;;;;;8159576;28;20026;-72
2022/04/23 19:19:17;;;;;;;15.30;7.57;;;;;;;;;;8161785;28;20539;-71
2022/04/23 19:27:41;;;;;;;11.20;7.80;;;;;;;;;;8160816;28;20075;-70
2022/04/23 19:31:42;;;;;;;9.30;7.57;;;;;;;;;;8158496;28;20766;-70
2022/04/23 19:35:44;;;;;;;10.85;7.35;;;;;;;;;;8160698;28;20700;-71
2022/04/23 19:39:44;;;;;;;8.77;7.55;;;;;;;;;;8160626;28;20028;-71
2022/04/23 19:43:44;;;;;;;9.20;7.55;;;;;;;;;;8158792;28;20134;-70
2022/04/23 19:47:44;;;;;;;9.60;7.38;;;;;;;;;;8158543;28;20035;-70
2022/04/23 19:51:45;;;;;;;10.38;7.47;;;;;;;;;;8159546;28;20097;-71
2022/04/23 19:55:47;;;;;;;9.52;7.82;;;;;;;;;;8159521;28;20033;-71
2022/04/23 19:59:47;;;;;;;9.20;7.45;;;;;;;;;;8160112;28;20763;-70
2022/04/23 20:03:47;;;;;;;11.30;7.70;;;;;;;;;;8157708;28;20035;-71
2022/04/23 20:07:49;;;;;;;8.00;7.20;;;;;;;;;;8159983;28;20413;-71
2022/04/23 20:11:50;;;;;;;8.52;7.35;;;;;;;;;;8158166;28;20031;-70
2022/04/23 20:15:50;;;;;;;10.32;7.88;;;;;;;;;;8159503;28;20089;-70
2022/04/23 20:19:50;;;;;;;8.77;7.25;;;;;;;;;;8159848;28;20102;-70
2022/04/23 20:23:51;;;;;;;9.20;7.85;;;;;;;;;;8158823;28;20031;-70
2022/04/23 20:27:51;;;;;;;12.65;7.88;;;;;;;;;;8158659;28;20036;-70
2022/04/23 20:31:52;;;;;;;13.02;7.88;;;;;;;;;;8159307;28;20047;-71
2022/04/23 20:40:28;;;;;;;11.57;7.95;;;;;;;;;;8152964;28;20739;-69
2022/04/23 20:44:28;;;;;;;11.50;9.18;;;;;;;;;;8154041;28;20023;-70
2022/04/23 20:48:28;;;;;;;13.38;8.93;;;;;;;;;;8151506;28;20042;-70
2022/04/23 20:56:47;;;;;;;9.20;8.13;;;;;;;;;;8157270;28;20037;-70
2022/04/23 21:00:48;;;;;;;8.45;7.57;;;;;;;;;;8158659;28;20067;-70
2022/04/23 21:04:50;;;;;;;11.02;7.82;;;;;;;;;;8160964;28;20070;-70
2022/04/23 21:08:50;;;;;;;10.68;7.47;;;;;;;;;;8162632;28;21085;-70
2022/04/23 21:12:51;;;;;;;9.07;7.88;;;;;;;;;;8158768;28;20472;-70
2022/04/23 21:16:51;;;;;;;8.95;7.57;;;;;;;;;;8161067;28;20564;-70
2022/04/23 21:20:51;;;;;;;9.80;8.13;;;;;;;;;;8160136;28;20039;-70
2022/04/23 21:24:51;;;;;;;9.38;8.20;;;;;;;;;;8160342;28;20036;-70
2022/04/23 21:28:51;;;;;;;9.57;7.30;;;;;;;;;;8160247;28;20027;-70
2022/04/23 21:32:52;;;;;;;8.57;7.60;;;;;;;;;;8162681;28;20291;-70
2022/04/23 21:36:52;;;;;;;11.17;7.37;;;;;;;;;;8175561;28;20234;-70
2022/04/23 21:45:13;;;;;;;9.02;7.30;;;;;;;;;;8166511;28;20027;-70
2022/04/23 21:49:13;;;;;;;8.75;7.53;;;;;;;;;;8167269;28;20020;-70
2022/04/23 21:53:13;;;;;;;8.95;7.68;;;;;;;;;;8164752;28;20041;-70
2022/04/23 21:57:14;;;;;;;8.43;7.00;;;;;;;;;;8169209;28;21145;-70
2022/04/23 22:01:16;;;;;;;9.80;7.47;;;;;;;;;;8165458;28;20031;-70
2022/04/23 22:05:17;;;;;;;9.70;7.40;;;;;;;;;;8164544;28;20610;-70
2022/04/23 22:09:18;;;;;;;11.90;7.13;;;;;;;;;;8166692;28;20023;-70
2022/04/23 22:13:18;;;;;;;8.60;6.95;;;;;;;;;;8165282;28;20896;-70
2022/04/23 22:17:18;;;;;;;8.10;7.25;;;;;;;;;;8164365;28;20027;-70
2022/04/23 22:21:18;;;;;;;10.88;7.07;;;;;;;;;;8164405;28;20036;-70
2022/04/23 22:25:19;;;;;;;9.43;7.68;;;;;;;;;;8165648;28;20016;-70
2022/04/23 22:29:19;;;;;;;20.52;8.35;;;;;;;;;;8165622;28;20023;-69
2022/04/23 22:33:20;;;;;;;9.93;7.72;;;;;;;;;;8165957;28;20039;-70
2022/04/23 22:37:20;;;;;;;8.52;7.60;;;;;;;;;;8166992;28;20027;-69
2022/04/23 22:41:20;;;;;;;9.27;7.63;;;;;;;;;;8164890;28;20019;-70
2022/04/23 22:45:20;;;;;;;9.20;7.82;;;;;;;;;;8165572;28;20054;-70
2022/04/23 22:49:21;;;;;;;8.93;8.00;;;;;;;;;;8163729;28;20027;-70
2022/04/23 22:53:21;;;;;;;8.77;7.88;;;;;;;;;;8164547;28;20924;-70
2022/04/23 22:57:21;;;;;;;9.15;8.18;;;;;;;;;;8162315;28;20023;-70
2022/04/23 23:01:21;;;;;;;11.00;8.38;;;;;;;;;;8161512;28;20531;-70
2022/04/23 23:05:22;;;;;;;9.60;7.95;;;;;;;;;;8163018;28;20019;-70
2022/04/23 23:09:22;;;;;;;8.80;7.90;;;;;;;;;;8163982;28;20026;-70
2022/04/23 23:13:23;;;;;;;10.60;8.82;;;;;;;;;;8163531;28;20400;-70
2022/04/23 23:17:23;;;;;;;9.55;8.55;;;;;;;;;;8163953;28;20401;-70
2022/04/23 23:21:23;;;;;;;9.75;8.38;;;;;;;;;;8162670;28;20146;-70
2022/04/23 23:25:23;;;;;;;10.00;8.38;;;;;;;;;;8164884;28;20031;-70
2022/04/23 23:29:23;;;;;;;10.48;8.43;;;;;;;;;;8164625;28;20039;-70
2022/04/23 23:33:23;;;;;;;13.68;9.30;;;;;;;;;;8160399;28;20043;-70
2022/04/23 23:37:24;;;;;;;11.65;8.13;;;;;;;;;;8164031;28;20145;-70
2022/04/23 23:41:24;;;;;;;10.00;8.60;;;;;;;;;;8162478;28;20618;-71
2022/04/23 23:45:24;;;;;;;10.57;8.07;;;;;;;;;;8161655;28;20035;-70
2022/04/23 23:49:24;;;;;;;9.02;7.45;;;;;;;;;;8163172;28;20031;-70
2022/04/23 23:53:24;;;;;;;8.80;7.60;;;;;;;;;;8161802;28;20031;-70
2022/04/23 23:57:24;;;;;;;11.38;7.40;;;;;;;;;;8162059;28;20130;-70
